Time;durP1;ratioP1;P1;durP2;ratioP2;P2;SDS_P1;SDS_P2;PMS_P1;PMS_P2;Temp;Humidity;BMP_temperature;BMP_pressure;BME280_temperature;BME280_humidity;BME280_pressure;Samples;Min_cycle;Max_cycle;Signal;HPM_P1;HPM_P2
2021/04/03 00:00:12;;;;;;;22.33;6.30;;;7.80;77.60;;;;;;5050377;28;20033;-75
2021/04/03 00:02:39;;;;;;;14.37;4.87;;;7.70;77.50;;;;;;5050715;28;20087;-75
2021/04/03 00:05:06;;;;;;;11.83;4.60;;;7.70;77.50;;;;;;5049034;28;20516;-76
2021/04/03 00:07:32;;;;;;;18.37;5.20;;;7.70;77.30;;;;;;5050739;28;20025;-77
2021/04/03 00:09:58;;;;;;;14.37;5.50;;;7.60;77.20;;;;;;5048774;28;20386;-76
2021/04/03 00:12:23;;;;;;;21.20;5.63;;;7.60;77.70;;;;;;5033012;28;20052;-74
2021/04/03 00:14:49;;;;;;;20.03;5.40;;;7.60;77.80;;;;;;5048277;28;20091;-75
2021/04/03 00:17:15;;;;;;;17.27;5.10;;;7.70;78.10;;;;;;5030283;28;20095;-75
2021/04/03 00:19:40;;;;;;;17.07;4.80;;;7.70;77.80;;;;;;5029599;28;20389;-75
2021/04/03 00:22:06;;;;;;;17.43;5.23;;;7.70;77.60;;;;;;5030121;28;20037;-75
2021/04/03 00:24:32;;;;;;;17.20;5.10;;;7.60;77.80;;;;;;5050803;28;20475;-75
2021/04/03 00:26:58;;;;;;;17.23;5.13;;;7.60;77.80;;;;;;5050142;28;20043;-79
2021/04/03 00:29:23;;;;;;;12.57;4.57;;;7.60;77.70;;;;;;5048920;28;20029;-75
2021/04/03 00:31:49;;;;;;;17.53;5.03;;;7.60;77.70;;;;;;5050362;28;20075;-75
2021/04/03 00:34:15;;;;;;;19.07;4.87;;;7.60;77.70;;;;;;5048754;28;20094;-74
2021/04/03 00:36:40;;;;;;;15.17;5.17;;;7.70;77.70;;;;;;5050338;28;20026;-75
2021/04/03 00:39:06;;;;;;;20.73;5.50;;;7.70;77.40;;;;;;5049758;28;20036;-75
2021/04/03 00:41:32;;;;;;;21.13;5.30;;;7.80;77.30;;;;;;5049047;28;20040;-76
2021/04/03 00:43:57;;;;;;;16.50;5.17;;;7.80;77.10;;;;;;5049960;28;20033;-78
2021/04/03 00:46:23;;;;;;;13.70;4.20;;;7.80;77.10;;;;;;5048702;28;20183;-75
2021/04/03 00:48:49;;;;;;;16.63;4.90;;;7.70;77.00;;;;;;5050457;28;20048;-74
2021/04/03 00:51:15;;;;;;;13.67;4.60;;;7.70;77.00;;;;;;5049428;28;20089;-75
2021/04/03 00:53:40;;;;;;;13.60;4.47;;;7.60;77.00;;;;;;5050465;28;20044;-74
2021/04/03 00:56:07;;;;;;;15.07;5.03;;;7.60;77.10;;;;;;5048000;28;20033;-75
2021/04/03 00:58:33;;;;;;;19.07;4.77;;;7.60;77.30;;;;;;5049689;28;20479;-75
2021/04/03 01:01:00;;;;;;;18.53;4.80;;;7.50;77.20;;;;;;5049941;28;20033;-74
2021/04/03 01:03:26;;;;;;;12.47;4.07;;;7.50;77.10;;;;;;5049560;28;20045;-75
2021/04/03 01:05:52;;;;;;;16.47;5.27;;;7.50;77.20;;;;;;5048290;28;20354;-75
2021/04/03 01:08:18;;;;;;;17.23;4.67;;;7.40;77.00;;;;;;5049593;28;20354;-74
2021/04/03 01:10:54;;;;;;;16.20;3.80;;;7.50;76.70;;;;;;5050205;28;20029;-74
2021/04/03 01:13:26;;;;;;;19.97;3.87;;;7.50;76.30;;;;;;5047825;28;20041;-75
2021/04/03 01:16:18;;;;;;;14.97;3.73;;;7.40;75.90;;;;;;5050022;28;20032;-74
2021/04/03 01:19:22;;;;;;;17.50;3.50;;;7.50;75.90;;;;;;5049110;28;20033;-74
2021/04/03 01:21:50;;;;;;;16.17;3.83;;;7.40;75.50;;;;;;5048370;28;20382;-74
2021/04/03 01:24:55;;;;;;;14.53;3.03;;;7.40;75.30;;;;;;5049409;28;20044;-75
2021/04/03 01:27:22;;;;;;;17.17;3.87;;;7.50;75.40;;;;;;5048090;28;20028;-75
2021/04/03 01:30:04;;;;;;;15.87;3.43;;;7.40;75.00;;;;;;5048659;28;20033;-75
2021/04/03 01:32:43;;;;;;;16.30;3.10;;;7.40;74.50;;;;;;5048179;28;20017;-74
2021/04/03 01:35:12;;;;;;;16.67;2.70;;;7.40;74.70;;;;;;5048744;28;20033;-78
2021/04/03 01:37:48;;;;;;;12.93;2.30;;;7.50;74.40;;;;;;5049518;28;20032;-74
2021/04/03 01:40:20;;;;;;;13.73;2.93;;;7.50;74.00;;;;;;5047963;28;20120;-75
2021/04/03 01:42:53;;;;;;;14.48;2.20;;;7.60;73.80;;;;;;5051529;28;20033;-74
2021/04/03 01:45:21;;;;;;;15.38;2.25;;;7.60;72.90;;;;;;5032688;28;20042;-74
2021/04/03 01:47:49;;;;;;;16.77;2.80;;;7.50;72.50;;;;;;5034030;28;20052;-74
2021/04/03 01:50:18;;;;;;;14.00;1.67;;;7.50;72.20;;;;;;5031577;28;20025;-74
2021/04/03 01:52:46;;;;;;;17.70;2.13;;;7.40;72.00;;;;;;5046839;28;20034;-74
2021/04/03 01:55:12;;;;;;;15.53;1.77;;;7.40;71.90;;;;;;5051475;28;20025;-75
2021/04/03 01:57:40;;;;;;;8.53;1.40;;;7.30;72.10;;;;;;5051975;28;20116;-75
2021/04/03 02:00:12;;;;;;;9.73;1.20;;;7.30;72.30;;;;;;5053529;28;20033;-75
2021/04/03 02:02:39;;;;;;;11.73;1.83;;;7.40;71.80;;;;;;5052208;28;20041;-74
2021/04/03 02:05:08;;;;;;;16.10;2.00;;;7.40;71.90;;;;;;5053310;28;20032;-75
2021/04/03 02:07:37;;;;;;;7.50;1.23;;;7.40;71.80;;;;;;5051409;28;20117;-74
2021/04/03 02:10:06;;;;;;;15.70;1.53;;;7.40;72.00;;;;;;5052059;28;20025;-74
2021/04/03 02:12:35;;;;;;;15.53;1.70;;;7.40;71.60;;;;;;5052001;28;20115;-75
2021/04/03 02:15:02;;;;;;;16.73;1.93;;;7.40;71.80;;;;;;5053034;28;20477;-74
2021/04/03 02:17:29;;;;;;;13.30;1.53;;;7.50;72.40;;;;;;5052027;28;20025;-74
2021/04/03 02:19:54;;;;;;;12.97;1.70;;;7.60;71.90;;;;;;5053017;28;20033;-74
2021/04/03 02:22:21;;;;;;;12.57;1.73;;;7.70;71.40;;;;;;5051720;28;20384;-74
2021/04/03 02:24:47;;;;;;;12.73;2.10;;;7.60;71.60;;;;;;5051696;28;20118;-73
2021/04/03 02:27:14;;;;;;;10.60;1.80;;;7.70;72.10;;;;;;5051168;28;20037;-77
2021/04/03 02:29:39;;;;;;;13.77;1.90;;;7.70;71.30;;;;;;5053034;28;20029;-74
2021/04/03 02:32:07;;;;;;;10.57;1.57;;;7.70;71.10;;;;;;5052558;28;20091;-76
2021/04/03 02:34:32;;;;;;;14.50;2.13;;;7.70;71.40;;;;;;5052359;28;20033;-75
2021/04/03 02:36:58;;;;;;;15.73;1.87;;;7.60;71.10;;;;;;5051808;28;20131;-75
2021/04/03 02:39:24;;;;;;;9.83;1.20;;;7.60;71.00;;;;;;5050678;28;20414;-74
2021/04/03 02:42:02;;;;;;;9.93;1.27;;;7.70;71.40;;;;;;5050792;28;20059;-74
2021/04/03 02:44:35;;;;;;;14.27;1.57;;;7.60;71.30;;;;;;5050742;28;20029;-74
2021/04/03 02:47:05;;;;;;;12.80;1.10;;;7.60;71.00;;;;;;5050802;28;20401;-75
2021/04/03 02:49:39;;;;;;;12.67;1.63;;;7.50;70.80;;;;;;5052001;28;20027;-74
2021/04/03 02:52:06;;;;;;;13.17;1.67;;;7.60;71.10;;;;;;5063014;28;20033;-75
2021/04/03 02:54:34;;;;;;;16.73;1.60;;;7.60;70.70;;;;;;5052408;28;20089;-76
2021/04/03 02:57:01;;;;;;;7.50;0.93;;;7.60;70.60;;;;;;5052196;28;20029;-75
2021/04/03 02:59:30;;;;;;;19.30;2.00;;;7.60;70.30;;;;;;5051432;28;20029;-75
2021/04/03 03:01:59;;;;;;;13.13;2.17;;;7.60;70.50;;;;;;5051860;28;20064;-75
2021/04/03 03:04:26;;;;;;;10.03;1.60;;;7.70;70.50;;;;;;5051603;28;20041;-75
2021/04/03 03:06:52;;;;;;;9.20;1.50;;;7.60;70.40;;;;;;5050700;28;20025;-75
2021/04/03 03:09:19;;;;;;;9.47;1.43;;;7.70;70.80;;;;;;5051333;28;20053;-78
2021/04/03 03:11:48;;;;;;;13.20;1.80;;;7.70;70.90;;;;;;5051897;28;20166;-74
2021/04/03 03:14:16;;;;;;;8.77;1.23;;;7.70;70.20;;;;;;5052132;28;20029;-74
2021/04/03 03:16:44;;;;;;;13.27;2.27;;;7.70;70.60;;;;;;5051100;28;20029;-74
2021/04/03 03:19:12;;;;;;;18.10;1.60;;;7.60;70.30;;;;;;5052082;28;20032;-74
2021/04/03 03:21:39;;;;;;;11.80;1.07;;;7.60;70.10;;;;;;5049266;28;20102;-76
2021/04/03 03:24:06;;;;;;;14.50;1.63;;;7.60;70.30;;;;;;5033790;28;20052;-73
2021/04/03 03:26:36;;;;;;;10.17;1.47;;;7.60;70.60;;;;;;5050766;28;20025;-73
2021/04/03 03:29:04;;;;;;;13.40;1.37;;;7.60;70.90;;;;;;5051340;28;20481;-74
2021/04/03 03:31:30;;;;;;;13.27;1.33;;;7.70;70.40;;;;;;5050750;28;20326;-74
2021/04/03 03:33:56;;;;;;;17.30;1.50;;;7.60;70.30;;;;;;5051648;28;20033;-74
2021/04/03 03:36:23;;;;;;;12.47;1.60;;;7.60;70.00;;;;;;5051094;28;20044;-77
2021/04/03 03:38:50;;;;;;;13.50;1.80;;;7.50;70.20;;;;;;5049882;28;20083;-75
2021/04/03 03:41:17;;;;;;;18.30;2.07;;;7.50;70.10;;;;;;5051526;28;20032;-76
2021/04/03 03:43:44;;;;;;;19.13;1.43;;;7.40;70.10;;;;;;5050496;28;20236;-75
2021/04/03 03:46:10;;;;;;;9.40;1.53;;;7.40;70.20;;;;;;5033088;28;20064;-76
2021/04/03 03:48:35;;;;;;;14.90;1.83;;;7.40;70.50;;;;;;5050521;28;20103;-76
2021/04/03 03:51:01;;;;;;;10.77;1.53;;;7.40;70.90;;;;;;5049810;28;20396;-75
2021/04/03 03:53:27;;;;;;;13.47;1.93;;;7.50;70.80;;;;;;5066162;28;20142;-79
2021/04/03 03:55:56;;;;;;;13.23;1.70;;;7.50;70.80;;;;;;5052911;28;20064;-75
2021/04/03 03:58:22;;;;;;;14.17;1.27;;;7.50;70.60;;;;;;5052938;28;20547;-75
2021/04/03 04:00:48;;;;;;;17.73;1.50;;;7.40;70.90;;;;;;5063175;28;20112;-75
2021/04/03 04:03:14;;;;;;;12.80;2.03;;;7.40;70.90;;;;;;5050904;28;20032;-75
2021/04/03 04:05:40;;;;;;;17.97;2.27;;;7.50;71.10;;;;;;5049334;28;20041;-75
2021/04/03 04:08:06;;;;;;;13.63;2.03;;;7.50;71.00;;;;;;5050537;28;20473;-75
2021/04/03 04:10:31;;;;;;;16.17;2.10;;;7.40;71.30;;;;;;5048961;28;20477;-79
2021/04/03 04:12:57;;;;;;;15.73;1.93;;;7.40;71.00;;;;;;5051344;28;20036;-74
2021/04/03 04:15:22;;;;;;;21.07;2.17;;;7.40;71.00;;;;;;5051025;28;20048;-75
2021/04/03 04:17:48;;;;;;;19.33;2.23;;;7.40;71.30;;;;;;5048338;28;20489;-75
2021/04/03 04:20:14;;;;;;;20.70;2.17;;;7.40;71.60;;;;;;5049078;28;20025;-76
2021/04/03 04:22:40;;;;;;;17.57;2.83;;;7.50;71.50;;;;;;5049939;28;20405;-75
2021/04/03 04:25:06;;;;;;;23.63;3.20;;;7.50;71.50;;;;;;5050551;28;20033;-75
2021/04/03 04:27:32;;;;;;;18.03;3.37;;;7.50;70.90;;;;;;5048283;28;20060;-79
2021/04/03 04:30:08;;;;;;;18.10;2.20;;;7.50;71.00;;;;;;5028936;28;20504;-75
2021/04/03 04:32:36;;;;;;;13.77;1.43;;;7.40;70.80;;;;;;5029780;28;20068;-72
2021/04/03 04:35:02;;;;;;;17.77;2.00;;;7.50;71.20;;;;;;5029465;28;20060;-75
2021/04/03 04:37:27;;;;;;;15.50;1.97;;;7.50;71.10;;;;;;5039706;28;20064;-75
2021/04/03 04:39:53;;;;;;;15.30;2.00;;;7.60;71.20;;;;;;5031416;28;20029;-75
2021/04/03 04:42:18;;;;;;;17.47;1.80;;;7.60;71.20;;;;;;5048934;28;20538;-75
2021/04/03 04:44:44;;;;;;;18.23;1.87;;;7.60;70.80;;;;;;5049604;28;20045;-75
2021/04/03 04:47:10;;;;;;;16.67;1.43;;;7.60;71.00;;;;;;5031770;28;20126;-74
2021/04/03 04:49:35;;;;;;;12.03;1.73;;;7.60;71.00;;;;;;5049434;28;20045;-79
2021/04/03 04:52:01;;;;;;;16.67;2.33;;;7.80;71.40;;;;;;5050188;28;20060;-76
2021/04/03 04:54:27;;;;;;;12.53;1.53;;;7.80;71.00;;;;;;5049002;28;20123;-75
2021/04/03 04:56:52;;;;;;;15.43;1.40;;;7.80;71.10;;;;;;5049412;28;20843;-75
2021/04/03 04:59:18;;;;;;;10.83;1.23;;;7.90;70.80;;;;;;5048871;28;20033;-74
2021/04/03 05:01:43;;;;;;;19.93;2.53;;;7.90;70.70;;;;;;5048996;28;20064;-75
2021/04/03 05:04:09;;;;;;;14.67;1.77;;;7.80;70.70;;;;;;5050135;28;20170;-74
2021/04/03 05:06:35;;;;;;;13.67;1.73;;;7.80;70.90;;;;;;5048586;28;20399;-77
2021/04/03 05:09:01;;;;;;;14.80;1.57;;;7.80;70.50;;;;;;5049405;28;20029;-74
2021/04/03 05:11:27;;;;;;;16.30;2.10;;;7.80;70.70;;;;;;5049724;28;20557;-76
2021/04/03 05:13:52;;;;;;;11.47;1.40;;;7.90;70.70;;;;;;5047482;28;20033;-75
2021/04/03 05:16:18;;;;;;;16.13;1.70;;;7.90;71.00;;;;;;5048911;28;20033;-75
2021/04/03 05:18:44;;;;;;;18.50;2.03;;;7.90;70.60;;;;;;5051822;28;20362;-75
2021/04/03 05:21:09;;;;;;;16.47;2.10;;;7.90;70.40;;;;;;5053843;28;20366;-76
2021/04/03 05:23:35;;;;;;;16.20;1.33;;;7.90;70.40;;;;;;5052751;28;20069;-75
2021/04/03 05:26:01;;;;;;;20.30;2.27;;;8.00;70.50;;;;;;5053100;28;20310;-75
2021/04/03 05:28:26;;;;;;;11.87;1.33;;;7.90;70.40;;;;;;5053693;28;20388;-75
2021/04/03 05:30:52;;;;;;;10.93;1.57;;;7.90;70.30;;;;;;5052958;28;20480;-74
2021/04/03 05:33:18;;;;;;;18.93;1.87;;;7.90;70.70;;;;;;5053669;28;20040;-75
2021/04/03 05:35:43;;;;;;;14.07;1.50;;;8.00;70.60;;;;;;5035358;28;20469;-79
2021/04/03 05:38:09;;;;;;;13.97;2.10;;;8.00;70.70;;;;;;5052354;28;20033;-75
2021/04/03 05:40:34;;;;;;;17.23;2.37;;;8.10;70.90;;;;;;5053477;28;20116;-75
2021/04/03 05:43:04;;;;;;;9.70;1.40;;;8.20;70.50;;;;;;5051824;28;20342;-73
2021/04/03 05:45:30;;;;;;;14.60;1.70;;;8.20;70.30;;;;;;5053155;28;20404;-75
2021/04/03 05:47:58;;;;;;;18.17;1.87;;;8.20;70.30;;;;;;5050308;28;20021;-73
2021/04/03 05:50:24;;;;;;;16.10;2.10;;;8.20;70.00;;;;;;5051010;28;20031;-74
2021/04/03 05:52:50;;;;;;;11.27;1.63;;;8.20;69.90;;;;;;5049085;28;20036;-75
2021/04/03 05:55:16;;;;;;;16.97;2.30;;;8.30;70.40;;;;;;5053761;28;20033;-74
2021/04/03 05:57:41;;;;;;;14.70;1.80;;;8.40;70.00;;;;;;5050519;28;20104;-73
2021/04/03 06:00:08;;;;;;;15.83;1.83;;;8.30;69.80;;;;;;5050778;28;20054;-73
2021/04/03 06:02:37;;;;;;;18.93;2.40;;;8.30;70.00;;;;;;5052643;28;20059;-74
2021/04/03 06:05:06;;;;;;;14.77;2.70;;;8.40;70.10;;;;;;5049615;28;20182;-74
2021/04/03 06:07:32;;;;;;;18.00;2.90;;;8.40;69.90;;;;;;5052991;28;20071;-74
2021/04/03 06:09:59;;;;;;;19.70;3.83;;;8.40;70.00;;;;;;5050930;28;20029;-74
2021/04/03 06:12:41;;;;;;;27.23;4.60;;;8.60;70.30;;;;;;5052908;28;20037;-74
2021/04/03 06:15:13;;;;;;;21.73;4.40;;;8.50;70.10;;;;;;5052747;28;20029;-76
2021/04/03 06:17:40;;;;;;;21.50;3.53;;;8.60;70.20;;;;;;5051847;28;20025;-74
2021/04/03 06:20:06;;;;;;;21.77;5.40;;;8.70;69.30;;;;;;5052331;28;20630;-74
2021/04/03 06:22:48;;;;;;;21.67;5.10;;;8.80;69.90;;;;;;5052456;28;20041;-74
2021/04/03 06:25:14;;;;;;;20.63;5.87;;;8.90;69.40;;;;;;5050883;28;20469;-74
2021/04/03 06:27:41;;;;;;;27.97;6.17;;;9.00;69.70;;;;;;5050817;28;20564;-74
2021/04/03 06:30:14;;;;;;;23.20;4.73;;;9.20;69.70;;;;;;5051041;28;20052;-75
2021/04/03 06:32:40;;;;;;;25.17;6.00;;;9.20;68.50;;;;;;5051614;28;20554;-74
2021/04/03 06:35:06;;;;;;;21.83;6.00;;;9.20;68.70;;;;;;5052340;28;20090;-73
2021/04/03 06:37:37;;;;;;;27.80;8.07;;;9.30;68.80;;;;;;5051795;28;20025;-75
2021/04/03 06:40:07;;;;;;;30.77;6.50;;;9.60;68.60;;;;;;5045915;28;20102;-77
2021/04/03 06:42:39;;;;;;;29.10;5.33;;;9.60;67.60;;;;;;5048644;28;20036;-74
2021/04/03 06:45:30;;;;;;;23.42;6.57;;;9.70;67.40;;;;;;5050597;28;20460;-76
2021/04/03 06:48:07;;;;;;;25.50;8.30;;;9.80;67.20;;;;;;5048716;28;20041;-73
2021/04/03 06:50:38;;;;;;;26.23;5.93;;;10.10;67.40;;;;;;5051614;28;21041;-75
2021/04/03 06:53:12;;;;;;;26.77;7.03;;;10.10;65.90;;;;;;5056251;28;20060;-73
2021/04/03 06:55:39;;;;;;;26.57;6.57;;;10.10;66.10;;;;;;5053710;28;20029;-75
2021/04/03 06:58:06;;;;;;;28.17;6.83;;;10.10;65.80;;;;;;5045462;28;20120;-75
2021/04/03 07:00:33;;;;;;;31.07;8.70;;;10.20;65.80;;;;;;5046928;28;20104;-74
2021/04/03 07:03:09;;;;;;;24.97;6.13;;;10.40;65.70;;;;;;5046085;28;20037;-74
2021/04/03 07:05:35;;;;;;;31.13;6.70;;;10.80;64.10;;;;;;5045141;28;20918;-72
2021/04/03 07:08:04;;;;;;;36.20;9.53;;;11.10;63.10;;;;;;5045331;28;20041;-75
2021/04/03 07:10:31;;;;;;;33.80;10.20;;;11.40;63.50;;;;;;5045980;28;20033;-77
2021/04/03 07:12:58;;;;;;;27.07;6.97;;;11.60;62.00;;;;;;5045258;28;20376;-73
2021/04/03 07:15:25;;;;;;;30.07;7.67;;;12.30;61.80;;;;;;5046261;28;20036;-73
2021/04/03 07:17:52;;;;;;;30.77;8.77;;;13.40;59.50;;;;;;5045932;28;20033;-73
2021/04/03 07:20:24;;;;;;;24.83;9.17;;;14.50;56.00;;;;;;5048357;28;20140;-73
2021/04/03 07:22:55;;;;;;;26.63;9.85;;;15.20;51.80;;;;;;5048574;28;20029;-72
2021/04/03 07:25:25;;;;;;;30.58;6.97;;;15.30;50.80;;;;;;5049776;28;20052;-73
2021/04/03 07:27:51;;;;;;;28.00;11.35;;;15.00;49.10;;;;;;5050880;28;20090;-73
2021/04/03 07:30:34;;;;;;;24.25;7.47;;;14.50;50.70;;;;;;5048674;28;20029;-73
2021/04/03 07:33:15;;;;;;;26.92;11.30;;;14.40;50.50;;;;;;5047027;28;20033;-73
2021/04/03 07:36:10;;;;;;;32.97;11.75;;;14.00;51.70;;;;;;5048891;28;20036;-73
2021/04/03 07:38:37;;;;;;;25.75;9.90;;;14.10;51.90;;;;;;5050557;28;20441;-74
2021/04/03 07:41:16;;;;;;;21.23;6.85;;;13.80;51.20;;;;;;5049891;28;20037;-73
2021/04/03 07:43:42;;;;;;;21.98;6.43;;;13.70;50.90;;;;;;5049375;28;20024;-74
2021/04/03 07:46:35;;;;;;;24.65;9.63;;;14.10;49.20;;;;;;5050393;28;20402;-74
2021/04/03 07:49:01;;;;;;;25.13;9.20;;;14.60;49.30;;;;;;5049634;28;20478;-74
2021/04/03 07:51:33;;;;;;;25.90;8.70;;;14.80;47.80;;;;;;5049859;28;20052;-74
2021/04/03 07:54:04;;;;;;;28.83;10.73;;;14.90;47.90;;;;;;5047645;28;20025;-78
2021/04/03 07:56:49;;;;;;;23.98;6.63;;;15.00;47.70;;;;;;5050868;28;20027;-74
2021/04/03 07:59:15;;;;;;;21.85;5.07;;;14.60;47.50;;;;;;5049722;28;20124;-73
2021/04/03 08:01:41;;;;;;;21.60;6.38;;;14.80;47.40;;;;;;5050856;28;20112;-74
2021/04/03 08:04:08;;;;;;;24.35;8.52;;;15.00;47.30;;;;;;5049609;28;20041;-75
2021/04/03 08:06:41;;;;;;;20.23;5.95;;;15.50;47.30;;;;;;5049928;28;20037;-73
2021/04/03 08:09:15;;;;;;;28.25;10.02;;;15.20;45.90;;;;;;5049527;28;20060;-74
2021/04/03 08:11:48;;;;;;;26.10;8.35;;;14.90;48.00;;;;;;5050078;28;20033;-74
2021/04/03 08:14:16;;;;;;;25.58;6.18;;;14.60;48.20;;;;;;5048678;28;20157;-73
2021/04/03 08:16:43;;;;;;;17.63;3.78;;;14.40;48.30;;;;;;5050598;28;20017;-74
2021/04/03 08:19:10;;;;;;;25.27;4.80;;;14.20;47.60;;;;;;5049694;28;20045;-75
2021/04/03 08:22:06;;;;;;;25.05;4.72;;;13.90;48.00;;;;;;5050573;28;20083;-75
2021/04/03 08:24:32;;;;;;;18.50;5.68;;;13.30;49.50;;;;;;5049579;28;20127;-74
2021/04/03 08:26:58;;;;;;;22.63;5.55;;;13.10;50.50;;;;;;5050650;28;20112;-72
2021/04/03 08:29:26;;;;;;;26.33;5.75;;;13.10;50.50;;;;;;5049788;28;20053;-74
2021/04/03 08:31:53;;;;;;;21.63;6.67;;;12.90;51.40;;;;;;5050443;28;20064;-75
2021/04/03 08:34:19;;;;;;;24.43;5.77;;;12.90;52.50;;;;;;5050093;28;20098;-75
2021/04/03 08:36:45;;;;;;;23.40;6.47;;;13.40;52.20;;;;;;5050082;28;20534;-73
2021/04/03 08:39:13;;;;;;;21.05;4.63;;;14.00;50.60;;;;;;5049586;28;20477;-74
2021/04/03 08:41:42;;;;;;;22.38;5.18;;;14.30;49.50;;;;;;5049286;28;20033;-75
2021/04/03 08:44:30;;;;;;;19.77;4.88;;;14.50;49.10;;;;;;5048320;28;20045;-77
2021/04/03 08:47:01;;;;;;;22.75;4.75;;;14.70;49.20;;;;;;5049784;28;20554;-73
2021/04/03 08:49:30;;;;;;;17.13;5.13;;;15.20;47.90;;;;;;5048401;28;20106;-74
2021/04/03 08:51:55;;;;;;;19.40;4.90;;;15.30;47.20;;;;;;5049263;28;20033;-73
2021/04/03 08:54:21;;;;;;;23.00;6.00;;;15.30;47.30;;;;;;5049544;28;20033;-73
2021/04/03 08:56:47;;;;;;;21.83;5.72;;;15.10;47.50;;;;;;5048474;28;20439;-73
2021/04/03 08:59:16;;;;;;;21.02;4.78;;;14.90;47.90;;;;;;5049437;28;20128;-73
2021/04/03 09:01:47;;;;;;;17.88;4.65;;;14.80;47.70;;;;;;5049777;28;20052;-73
2021/04/03 09:04:14;;;;;;;18.20;4.72;;;14.70;48.20;;;;;;5048170;28;20037;-75
2021/04/03 09:06:52;;;;;;;23.52;5.10;;;14.70;48.50;;;;;;5049835;28;20037;-75
2021/04/03 09:09:28;;;;;;;20.95;5.18;;;14.60;48.70;;;;;;5049432;28;20033;-75
2021/04/03 09:11:57;;;;;;;20.73;4.72;;;14.60;49.20;;;;;;5048992;28;20029;-72
2021/04/03 09:14:28;;;;;;;18.52;3.50;;;14.90;48.70;;;;;;5044739;28;20033;-73
2021/04/03 09:16:54;;;;;;;24.75;5.22;;;14.90;47.20;;;;;;5047605;28;20025;-74
2021/04/03 09:19:24;;;;;;;15.93;6.25;;;14.70;48.30;;;;;;5048757;28;20037;-75
2021/04/03 09:21:50;;;;;;;23.30;6.03;;;14.20;49.30;;;;;;5049018;28;20101;-76
2021/04/03 09:24:35;;;;;;;19.00;5.10;;;13.90;49.80;;;;;;5047369;28;20090;-76
2021/04/03 09:27:15;;;;;;;24.33;6.45;;;13.70;50.70;;;;;;5047821;28;20029;-74
2021/04/03 09:29:44;;;;;;;20.55;5.43;;;13.70;51.10;;;;;;5049779;28;20104;-73
2021/04/03 09:32:11;;;;;;;24.05;6.65;;;13.60;50.80;;;;;;5049765;28;20056;-75
2021/04/03 09:34:37;;;;;;;21.45;4.07;;;13.60;51.10;;;;;;5049288;28;20048;-74
2021/04/03 09:37:16;;;;;;;15.15;4.60;;;13.20;50.90;;;;;;5048482;28;20104;-74
2021/04/03 09:39:48;;;;;;;38.05;23.00;;;13.00;52.20;;;;;;5049741;28;20036;-74
2021/04/03 09:42:16;;;;;;;41.73;22.33;;;12.70;52.30;;;;;;5049440;28;20083;-77
2021/04/03 09:44:43;;;;;;;26.60;10.00;;;12.70;54.60;;;;;;5048407;28;20037;-73
2021/04/03 09:47:09;;;;;;;20.33;4.77;;;12.90;52.70;;;;;;5048606;28;20061;-75
2021/04/03 09:49:35;;;;;;;18.50;6.30;;;13.30;52.30;;;;;;5048827;28;20033;-75
2021/04/03 09:52:02;;;;;;;27.23;6.93;;;13.30;52.50;;;;;;5049813;28;20099;-73
2021/04/03 09:54:27;;;;;;;22.38;7.07;;;14.30;52.30;;;;;;5047941;28;20033;-74
2021/04/03 09:56:53;;;;;;;26.90;7.10;;;15.10;49.90;;;;;;5048228;28;20028;-75
2021/04/03 09:59:18;;;;;;;15.80;6.18;;;15.50;48.30;;;;;;5049004;28;20487;-78
2021/04/03 10:01:44;;;;;;;22.95;6.32;;;15.70;47.40;;;;;;5049059;28;20037;-74
2021/04/03 10:04:10;;;;;;;18.65;5.95;;;15.70;47.50;;;;;;5030902;28;20052;-75
2021/04/03 10:06:35;;;;;;;23.52;7.78;;;15.40;47.30;;;;;;5030970;28;20060;-75
2021/04/03 10:09:01;;;;;;;20.95;6.45;;;15.30;48.00;;;;;;5044919;28;20173;-74
2021/04/03 10:11:27;;;;;;;16.95;5.93;;;15.60;48.10;;;;;;5051950;28;20481;-74
2021/04/03 10:13:52;;;;;;;18.08;5.30;;;16.30;46.90;;;;;;5052651;28;20032;-73
2021/04/03 10:16:18;;;;;;;19.75;4.38;;;17.00;45.30;;;;;;5052183;28;20032;-78
2021/04/03 10:18:44;;;;;;;19.50;5.18;;;16.60;43.60;;;;;;5049764;28;20036;-73
2021/04/03 10:21:11;;;;;;;18.00;5.25;;;16.00;45.30;;;;;;5052332;28;20458;-75
2021/04/03 10:23:36;;;;;;;19.67;3.97;;;15.50;46.30;;;;;;5051934;28;20659;-73
2021/04/03 10:26:03;;;;;;;21.00;4.00;;;15.20;46.80;;;;;;5035082;28;20040;-73
2021/04/03 10:28:28;;;;;;;19.10;4.53;;;14.50;47.50;;;;;;5051778;28;20473;-72
2021/04/03 10:30:54;;;;;;;21.92;4.60;;;14.50;49.00;;;;;;5052367;28;20035;-73
2021/04/03 10:33:20;;;;;;;23.33;6.18;;;14.20;48.80;;;;;;5052478;28;20047;-78
2021/04/03 10:35:46;;;;;;;27.88;7.78;;;14.80;49.80;;;;;;5051579;28;20021;-74
2021/04/03 10:38:11;;;;;;;26.95;6.93;;;16.10;47.90;;;;;;5054763;28;20385;-75
2021/04/03 10:40:37;;;;;;;20.65;6.85;;;17.10;44.90;;;;;;5052756;28;20037;-74
2021/04/03 10:43:02;;;;;;;17.52;6.00;;;17.60;44.20;;;;;;5051209;28;20473;-74
2021/04/03 10:45:28;;;;;;;20.92;6.53;;;17.60;43.50;;;;;;5051620;28;20051;-74
2021/04/03 10:47:54;;;;;;;19.40;5.88;;;17.70;43.30;;;;;;5050656;28;20075;-75
2021/04/03 10:50:19;;;;;;;18.20;4.32;;;17.90;43.30;;;;;;5051731;28;20388;-74
2021/04/03 10:52:45;;;;;;;26.27;6.80;;;17.80;41.40;;;;;;5049641;28;20028;-74
2021/04/03 10:55:11;;;;;;;16.30;3.55;;;17.50;43.80;;;;;;5052646;28;20661;-74
2021/04/03 10:57:37;;;;;;;20.67;3.95;;;17.20;43.00;;;;;;5050908;28;20115;-74
2021/04/03 11:00:05;;;;;;;23.05;4.63;;;16.50;43.40;;;;;;5052091;28;20112;-76
2021/04/03 11:02:31;;;;;;;18.55;5.88;;;15.90;45.00;;;;;;5051029;28;20025;-75
2021/04/03 11:04:56;;;;;;;27.58;8.13;;;16.10;45.70;;;;;;5051183;28;20049;-75
2021/04/03 11:07:22;;;;;;;17.52;5.25;;;16.70;43.80;;;;;;5051887;28;20083;-74
2021/04/03 11:09:48;;;;;;;19.80;5.88;;;16.30;44.70;;;;;;5050996;28;20052;-73
2021/04/03 11:12:15;;;;;;;17.25;5.03;;;15.90;45.40;;;;;;5049757;28;20040;-74
2021/04/03 11:14:41;;;;;;;26.40;5.47;;;15.50;45.90;;;;;;5050626;28;20507;-75
2021/04/03 11:17:07;;;;;;;21.63;4.55;;;15.70;46.50;;;;;;5050453;28;20492;-74
2021/04/03 11:19:33;;;;;;;22.08;6.43;;;15.70;46.10;;;;;;5050658;28;20057;-74
2021/04/03 11:21:59;;;;;;;18.40;5.72;;;16.00;47.10;;;;;;5051945;28;20039;-74
2021/04/03 11:24:25;;;;;;;20.65;5.45;;;16.50;45.70;;;;;;5051475;28;20451;-74
2021/04/03 11:26:51;;;;;;;22.40;5.80;;;16.80;45.60;;;;;;5050359;28;20554;-75
2021/04/03 11:29:17;;;;;;;15.60;5.07;;;17.10;44.30;;;;;;5051701;28;20037;-74
2021/04/03 11:31:43;;;;;;;16.00;5.20;;;17.10;43.50;;;;;;5049005;28;20380;-73
2021/04/03 11:34:08;;;;;;;15.25;3.65;;;17.60;44.10;;;;;;5051357;28;20040;-72
2021/04/03 11:36:34;;;;;;;15.15;4.88;;;17.60;42.00;;;;;;5049936;28;20037;-74
2021/04/03 11:39:00;;;;;;;15.63;5.57;;;17.70;43.50;;;;;;5050169;28;20624;-74
2021/04/03 11:41:25;;;;;;;17.55;6.18;;;18.10;43.00;;;;;;5050585;28;20470;-73
2021/04/03 11:43:51;;;;;;;17.15;5.65;;;18.30;42.10;;;;;;5049873;28;20021;-74
2021/04/03 11:46:17;;;;;;;18.40;5.50;;;18.30;41.80;;;;;;5048123;28;20132;-74
2021/04/03 11:48:42;;;;;;;17.95;4.68;;;18.20;41.80;;;;;;5029146;28;20038;-74
2021/04/03 11:51:08;;;;;;;14.43;4.45;;;17.90;41.90;;;;;;5012882;28;20029;-75
2021/04/03 11:53:34;;;;;;;15.30;4.03;;;17.70;41.80;;;;;;5030959;28;20100;-75
2021/04/03 11:56:00;;;;;;;14.80;4.68;;;17.50;41.60;;;;;;5029745;28;20092;-75
2021/04/03 11:58:26;;;;;;;16.67;4.97;;;17.20;42.20;;;;;;5029592;28;20088;-74
2021/04/03 12:00:51;;;;;;;19.30;4.45;;;17.20;42.50;;;;;;5028831;28;20041;-74
2021/04/03 12:03:17;;;;;;;16.50;3.40;;;17.10;42.10;;;;;;5030842;28;20029;-76
2021/04/03 12:05:42;;;;;;;16.48;5.75;;;16.60;42.20;;;;;;5030096;28;20072;-75
2021/04/03 12:08:08;;;;;;;19.25;4.30;;;16.70;44.10;;;;;;5030802;28;20065;-74
2021/04/03 12:10:36;;;;;;;17.52;4.30;;;17.00;43.60;;;;;;5012889;28;20021;-81
2021/04/03 12:13:02;;;;;;;19.08;5.07;;;16.80;42.50;;;;;;5030198;28;20030;-76
2021/04/03 12:15:28;;;;;;;19.08;6.20;;;16.90;42.80;;;;;;5029961;28;20037;-74
2021/04/03 12:17:56;;;;;;;21.70;6.95;;;17.10;42.10;;;;;;5045814;28;20091;-75
2021/04/03 12:20:22;;;;;;;20.85;7.43;;;17.00;42.10;;;;;;5030198;28;20545;-77
2021/04/03 12:22:47;;;;;;;23.20;5.57;;;17.10;42.40;;;;;;5029864;28;20030;-74
2021/04/03 12:25:14;;;;;;;16.90;4.05;;;17.40;42.20;;;;;;5030591;28;20072;-75
2021/04/03 12:27:40;;;;;;;16.55;5.47;;;17.00;41.40;;;;;;5027646;28;20382;-74
2021/04/03 12:30:06;;;;;;;18.25;8.40;;;16.40;42.50;;;;;;5030486;28;20064;-75
2021/04/03 12:32:33;;;;;;;15.88;7.30;;;16.60;43.80;;;;;;5028854;28;20029;-74
2021/04/03 12:34:58;;;;;;;14.38;5.82;;;16.80;42.50;;;;;;5044521;28;20082;-73
2021/04/03 12:37:25;;;;;;;17.30;6.63;;;16.80;41.20;;;;;;5046351;28;21817;-78
2021/04/03 12:39:50;;;;;;;18.65;6.47;;;17.00;41.10;;;;;;5043910;28;20485;-74
2021/04/03 12:42:16;;;;;;;13.45;4.88;;;16.90;40.70;;;;;;5047797;28;20108;-75
2021/04/03 12:44:42;;;;;;;10.63;2.90;;;16.80;40.40;;;;;;5049131;28;20063;-74
2021/04/03 12:47:08;;;;;;;14.73;4.97;;;16.20;40.20;;;;;;5048221;28;20790;-75